Time;durP1;ratioP1;P1;durP2;ratioP2;P2;SDS_P1;SDS_P2;PMS_P1;PMS_P2;Temp;Humidity;BMP_temperature;BMP_pressure;BME280_temperature;BME280_humidity;BME280_pressure;Samples;Min_cycle;Max_cycle;Signal;HPM_P1;HPM_P2
2022/08/01 00:00:01;;;;;;;1.2;0.8;;;;;;;21.4;100.0;101360;;;;
2022/08/01 00:01:00;;;;;;;1.2;0.8;;;;;;;21.4;100.0;101360;;;;
2022/08/01 00:02:01;;;;;;;1.2;0.8;;;;;;;21.5;100.0;101360;;;;
2022/08/01 00:03:00;;;;;;;1.2;0.8;;;;;;;21.5;100.0;101360;;;;
2022/08/01 00:04:00;;;;;;;1.2;0.8;;;;;;;21.4;100.0;101360;;;;
2022/08/01 00:05:00;;;;;;;1.2;0.8;;;;;;;21.4;100.0;101360;;;;
2022/08/01 00:06:00;;;;;;;1.2;0.8;;;;;;;21.3;100.0;101360;;;;
2022/08/01 00:07:00;;;;;;;1.2;0.8;;;;;;;21.3;100.0;101360;;;;
2022/08/01 00:08:00;;;;;;;1.2;0.8;;;;;;;21.4;100.0;101360;;;;
2022/08/01 00:09:00;;;;;;;1.2;0.8;;;;;;;21.4;100.0;101360;;;;
2022/08/01 00:10:00;;;;;;;1.2;0.8;;;;;;;21.5;100.0;101360;;;;
2022/08/01 00:11:03;;;;;;;1.2;0.8;;;;;;;21.5;100.0;101360;;;;
2022/08/01 00:12:00;;;;;;;1.2;0.8;;;;;;;21.4;100.0;101360;;;;
2022/08/01 00:13:00;;;;;;;1.2;0.8;;;;;;;21.4;100.0;101360;;;;
2022/08/01 00:14:00;;;;;;;1.2;0.8;;;;;;;21.4;100.0;101360;;;;
2022/08/01 00:15:00;;;;;;;1.2;0.8;;;;;;;21.4;100.0;101360;;;;
2022/08/01 00:16:00;;;;;;;1.2;0.8;;;;;;;21.4;100.0;101360;;;;
2022/08/01 00:17:07;;;;;;;0.6;0.6;;;;;;;21.4;100.0;101360;;;;
2022/08/01 00:18:00;;;;;;;0.6;0.6;;;;;;;21.4;100.0;101360;;;;
2022/08/01 00:19:00;;;;;;;0.6;0.6;;;;;;;21.4;100.0;101360;;;;
2022/08/01 00:20:00;;;;;;;0.6;0.6;;;;;;;21.4;100.0;101360;;;;
2022/08/01 00:21:00;;;;;;;0.6;0.6;;;;;;;21.4;100.0;101360;;;;
2022/08/01 00:22:00;;;;;;;0.6;0.6;;;;;;;21.3;100.0;101370;;;;
2022/08/01 00:23:02;;;;;;;0.6;0.6;;;;;;;21.3;100.0;101370;;;;
2022/08/01 00:24:00;;;;;;;0.6;0.6;;;;;;;21.3;100.0;101370;;;;
2022/08/01 00:25:00;;;;;;;0.6;0.6;;;;;;;21.3;100.0;101370;;;;
2022/08/01 00:26:00;;;;;;;0.6;0.6;;;;;;;21.3;100.0;101370;;;;
2022/08/01 00:27:00;;;;;;;0.6;0.6;;;;;;;21.3;100.0;101370;;;;
2022/08/01 00:28:00;;;;;;;0.6;0.6;;;;;;;21.3;100.0;101370;;;;
2022/08/01 00:29:00;;;;;;;0.6;0.6;;;;;;;21.3;100.0;101370;;;;
2022/08/01 00:30:10;;;;;;;0.6;0.6;;;;;;;21.4;100.0;101370;;;;
2022/08/01 00:31:00;;;;;;;0.6;0.6;;;;;;;21.4;100.0;101370;;;;
2022/08/01 00:32:00;;;;;;;0.6;0.6;;;;;;;21.3;100.0;101370;;;;
2022/08/01 00:33:00;;;;;;;0.6;0.6;;;;;;;21.3;100.0;101370;;;;
2022/08/01 00:34:00;;;;;;;0.6;0.6;;;;;;;21.4;100.0;101370;;;;
2022/08/01 00:35:00;;;;;;;0.6;0.6;;;;;;;21.4;100.0;101370;;;;
2022/08/01 00:36:00;;;;;;;0.6;0.6;;;;;;;21.5;100.0;101370;;;;
2022/08/01 00:37:00;;;;;;;1.8;0.9;;;;;;;21.5;100.0;101370;;;;
2022/08/01 00:38:00;;;;;;;1.8;0.9;;;;;;;21.5;100.0;101370;;;;
2022/08/01 00:39:00;;;;;;;1.8;0.9;;;;;;;21.5;100.0;101370;;;;
2022/08/01 00:40:00;;;;;;;1.8;0.9;;;;;;;21.4;100.0;101370;;;;
2022/08/01 00:41:00;;;;;;;1.8;0.9;;;;;;;21.4;100.0;101370;;;;
2022/08/01 00:42:06;;;;;;;1.8;0.9;;;;;;;21.3;100.0;101380;;;;
2022/08/01 00:43:00;;;;;;;1.8;0.9;;;;;;;21.3;100.0;101380;;;;
2022/08/01 00:44:04;;;;;;;1.8;0.9;;;;;;;21.2;100.0;101380;;;;
2022/08/01 00:45:00;;;;;;;1.8;0.9;;;;;;;21.2;100.0;101380;;;;
2022/08/01 00:46:00;;;;;;;1.8;0.9;;;;;;;21.3;100.0;101380;;;;
2022/08/01 00:47:00;;;;;;;1.8;0.9;;;;;;;21.3;100.0;101380;;;;
2022/08/01 00:48:00;;;;;;;1.8;0.9;;;;;;;21.3;100.0;101380;;;;
2022/08/01 00:49:00;;;;;;;1.8;0.9;;;;;;;21.3;100.0;101380;;;;
2022/08/01 00:50:00;;;;;;;1.8;0.9;;;;;;;21.2;100.0;101380;;;;
2022/08/01 00:51:00;;;;;;;1.8;0.9;;;;;;;21.2;100.0;101380;;;;
2022/08/01 00:52:00;;;;;;;1.8;0.9;;;;;;;21.3;100.0;101380;;;;
2022/08/01 00:53:00;;;;;;;1.8;0.9;;;;;;;21.3;100.0;101380;;;;
2022/08/01 00:54:00;;;;;;;1.8;0.9;;;;;;;21.3;100.0;101380;;;;
2022/08/01 00:55:00;;;;;;;1.8;0.9;;;;;;;21.3;100.0;101380;;;;
2022/08/01 00:56:01;;;;;;;1.8;0.9;;;;;;;21.2;100.0;101380;;;;
2022/08/01 00:57:00;;;;;;;0.4;0.4;;;;;;;21.2;100.0;101380;;;;
2022/08/01 00:58:05;;;;;;;0.4;0.4;;;;;;;21.3;100.0;101380;;;;
2022/08/01 00:59:00;;;;;;;0.4;0.4;;;;;;;21.3;100.0;101380;;;;
2022/08/01 01:00:00;;;;;;;0.4;0.4;;;;;;;21.0;100.0;101380;;;;
2022/08/01 01:01:03;;;;;;;0.4;0.4;;;;;;;21.0;100.0;101380;;;;
2022/08/01 01:02:01;;;;;;;0.4;0.4;;;;;;;21.1;100.0;101380;;;;
2022/08/01 01:03:00;;;;;;;0.4;0.4;;;;;;;21.1;100.0;101380;;;;
2022/08/01 01:04:00;;;;;;;0.4;0.4;;;;;;;21.1;100.0;101380;;;;
2022/08/01 01:05:00;;;;;;;0.4;0.4;;;;;;;21.1;100.0;101380;;;;
2022/08/01 01:06:08;;;;;;;0.4;0.4;;;;;;;21.2;100.0;101380;;;;
2022/08/01 01:07:07;;;;;;;0.4;0.4;;;;;;;21.2;100.0;101380;;;;
2022/08/01 01:08:03;;;;;;;0.4;0.4;;;;;;;21.1;100.0;101390;;;;
2022/08/01 01:09:03;;;;;;;0.4;0.4;;;;;;;21.1;100.0;101390;;;;
2022/08/01 01:10:09;;;;;;;0.4;0.4;;;;;;;21.1;100.0;101380;;;;
2022/08/01 01:11:03;;;;;;;0.4;0.4;;;;;;;21.1;100.0;101380;;;;
2022/08/01 01:12:08;;;;;;;0.4;0.4;;;;;;;21.1;100.0;101380;;;;
2022/08/01 01:13:10;;;;;;;0.4;0.4;;;;;;;21.1;100.0;101380;;;;
2022/08/01 01:14:04;;;;;;;0.4;0.4;;;;;;;21.2;100.0;101380;;;;
2022/08/01 01:15:03;;;;;;;0.4;0.4;;;;;;;21.2;100.0;101380;;;;
2022/08/01 01:16:04;;;;;;;0.4;0.4;;;;;;;21.1;100.0;101390;;;;
2022/08/01 01:17:02;;;;;;;0.3;0.3;;;;;;;21.1;100.0;101390;;;;
2022/08/01 01:18:03;;;;;;;0.3;0.3;;;;;;;21.1;100.0;101390;;;;
2022/08/01 01:19:02;;;;;;;0.3;0.3;;;;;;;21.1;100.0;101390;;;;
2022/08/01 01:20:00;;;;;;;0.3;0.3;;;;;;;21.1;100.0;101380;;;;
2022/08/01 01:21:07;;;;;;;0.3;0.3;;;;;;;21.1;100.0;101380;;;;
2022/08/01 01:22:08;;;;;;;0.3;0.3;;;;;;;21.1;100.0;101380;;;;
2022/08/01 01:23:10;;;;;;;0.3;0.3;;;;;;;21.1;100.0;101380;;;;
2022/08/01 01:24:10;;;;;;;0.3;0.3;;;;;;;21.1;100.0;101390;;;;
2022/08/01 01:25:10;;;;;;;0.3;0.3;;;;;;;21.1;100.0;101390;;;;
2022/08/01 01:26:10;;;;;;;0.3;0.3;;;;;;;21.1;100.0;101390;;;;
2022/08/01 01:27:06;;;;;;;0.3;0.3;;;;;;;21.1;100.0;101390;;;;
2022/08/01 01:28:01;;;;;;;0.3;0.3;;;;;;;21.1;100.0;101380;;;;
2022/08/01 01:29:07;;;;;;;0.3;0.3;;;;;;;21.1;100.0;101380;;;;
2022/08/01 01:30:01;;;;;;;0.3;0.3;;;;;;;21.1;100.0;101380;;;;
2022/08/01 01:31:02;;;;;;;0.3;0.3;;;;;;;21.1;100.0;101380;;;;
2022/08/01 01:32:00;;;;;;;0.3;0.3;;;;;;;21.0;100.0;101390;;;;
2022/08/01 01:33:02;;;;;;;0.3;0.3;;;;;;;21.0;100.0;101390;;;;
2022/08/01 01:34:02;;;;;;;0.3;0.3;;;;;;;21.0;100.0;101380;;;;
2022/08/01 01:35:02;;;;;;;0.3;0.3;;;;;;;21.0;100.0;101380;;;;
2022/08/01 01:36:11;;;;;;;0.3;0.3;;;;;;;21.0;100.0;101380;;;;
2022/08/01 01:37:01;;;;;;;0.5;0.5;;;;;;;21.0;100.0;101380;;;;
2022/08/01 01:38:03;;;;;;;0.5;0.5;;;;;;;21.1;100.0;101380;;;;
2022/08/01 01:39:00;;;;;;;0.5;0.5;;;;;;;21.1;100.0;101380;;;;
2022/08/01 01:40:00;;;;;;;0.5;0.5;;;;;;;21.1;100.0;101380;;;;
2022/08/01 01:41:02;;;;;;;0.5;0.5;;;;;;;21.1;100.0;101380;;;;
2022/08/01 01:42:01;;;;;;;0.5;0.5;;;;;;;21.1;100.0;101380;;;;
2022/08/01 01:43:00;;;;;;;0.5;0.5;;;;;;;21.1;100.0;101380;;;;
2022/08/01 01:44:01;;;;;;;0.5;0.5;;;;;;;21.1;100.0;101380;;;;
2022/08/01 01:45:02;;;;;;;0.5;0.5;;;;;;;21.1;100.0;101380;;;;
2022/08/01 01:46:00;;;;;;;0.5;0.5;;;;;;;21.0;100.0;101380;;;;
2022/08/01 01:47:00;;;;;;;0.5;0.5;;;;;;;21.0;100.0;101380;;;;
2022/08/01 01:48:00;;;;;;;0.5;0.5;;;;;;;21.0;100.0;101380;;;;
2022/08/01 01:49:01;;;;;;;0.5;0.5;;;;;;;21.0;100.0;101380;;;;
2022/08/01 01:50:01;;;;;;;0.5;0.5;;;;;;;21.0;100.0;101380;;;;
2022/08/01 01:51:01;;;;;;;0.5;0.5;;;;;;;21.0;100.0;101380;;;;
2022/08/01 01:52:03;;;;;;;0.5;0.5;;;;;;;21.0;100.0;101380;;;;
2022/08/01 01:53:01;;;;;;;0.5;0.5;;;;;;;21.0;100.0;101380;;;;
2022/08/01 01:54:01;;;;;;;0.5;0.5;;;;;;;20.9;100.0;101380;;;;
2022/08/01 01:55:01;;;;;;;0.5;0.5;;;;;;;20.9;100.0;101380;;;;
2022/08/01 01:56:01;;;;;;;0.5;0.5;;;;;;;21.0;100.0;101370;;;;
2022/08/01 01:57:01;;;;;;;0.2;0.2;;;;;;;21.0;100.0;101370;;;;
2022/08/01 01:58:01;;;;;;;0.2;0.2;;;;;;;20.9;100.0;101380;;;;
2022/08/01 01:59:01;;;;;;;0.2;0.2;;;;;;;20.9;100.0;101380;;;;
2022/08/01 02:00:00;;;;;;;0.2;0.2;;;;;;;20.9;100.0;101380;;;;
2022/08/01 02:01:03;;;;;;;0.2;0.2;;;;;;;20.9;100.0;101380;;;;
2022/08/01 02:02:09;;;;;;;0.2;0.2;;;;;;;20.9;100.0;101380;;;;
2022/08/01 02:03:02;;;;;;;0.2;0.2;;;;;;;20.9;100.0;101380;;;;
2022/08/01 02:04:02;;;;;;;0.2;0.2;;;;;;;21.0;100.0;101380;;;;
2022/08/01 02:05:01;;;;;;;0.2;0.2;;;;;;;21.0;100.0;101380;;;;
2022/08/01 02:06:01;;;;;;;0.2;0.2;;;;;;;20.9;100.0;101380;;;;
2022/08/01 02:07:00;;;;;;;0.2;0.2;;;;;;;20.9;100.0;101380;;;;
2022/08/01 02:08:01;;;;;;;0.2;0.2;;;;;;;20.8;100.0;101380;;;;
2022/08/01 02:09:01;;;;;;;0.2;0.2;;;;;;;20.8;100.0;101380;;;;
2022/08/01 02:10:01;;;;;;;0.2;0.2;;;;;;;20.8;100.0;101370;;;;
2022/08/01 02:12:09;;;;;;;0.2;0.2;;;;;;;20.8;100.0;101370;;;;
2022/08/01 02:13:02;;;;;;;0.2;0.2;;;;;;;20.8;100.0;101370;;;;
2022/08/01 02:14:01;;;;;;;0.2;0.2;;;;;;;20.8;100.0;101370;;;;
2022/08/01 02:15:01;;;;;;;0.2;0.2;;;;;;;20.8;100.0;101370;;;;
2022/08/01 02:16:00;;;;;;;0.2;0.2;;;;;;;20.8;100.0;101380;;;;
2022/08/01 02:17:03;;;;;;;0.1;0.1;;;;;;;20.8;100.0;101380;;;;
2022/08/01 02:18:01;;;;;;;0.1;0.1;;;;;;;20.8;100.0;101380;;;;
2022/08/01 02:19:00;;;;;;;0.1;0.1;;;;;;;20.8;100.0;101380;;;;
2022/08/01 02:20:00;;;;;;;0.1;0.1;;;;;;;20.6;100.0;101370;;;;
2022/08/01 02:21:02;;;;;;;0.1;0.1;;;;;;;20.6;100.0;101370;;;;
2022/08/01 02:22:06;;;;;;;0.1;0.1;;;;;;;20.6;100.0;101370;;;;
2022/08/01 02:23:04;;;;;;;0.1;0.1;;;;;;;20.6;100.0;101370;;;;
2022/08/01 02:24:06;;;;;;;0.1;0.1;;;;;;;20.6;100.0;101370;;;;
2022/08/01 02:25:04;;;;;;;0.1;0.1;;;;;;;20.6;100.0;101370;;;;
2022/08/01 02:26:12;;;;;;;0.1;0.1;;;;;;;20.6;100.0;101380;;;;
2022/08/01 02:27:03;;;;;;;0.1;0.1;;;;;;;20.6;100.0;101380;;;;
2022/08/01 02:28:04;;;;;;;0.1;0.1;;;;;;;20.6;100.0;101370;;;;
2022/08/01 02:29:02;;;;;;;0.1;0.1;;;;;;;20.6;100.0;101370;;;;
2022/08/01 02:30:02;;;;;;;0.1;0.1;;;;;;;20.6;100.0;101380;;;;
2022/08/01 02:31:02;;;;;;;0.1;0.1;;;;;;;20.6;100.0;101380;;;;
2022/08/01 02:32:01;;;;;;;0.1;0.1;;;;;;;20.5;100.0;101380;;;;
2022/08/01 02:33:03;;;;;;;0.1;0.1;;;;;;;20.5;100.0;101380;;;;
2022/08/01 02:34:02;;;;;;;0.1;0.1;;;;;;;20.5;100.0;101370;;;;
2022/08/01 02:35:01;;;;;;;0.1;0.1;;;;;;;20.5;100.0;101370;;;;
2022/08/01 02:36:11;;;;;;;0.1;0.1;;;;;;;20.5;100.0;101380;;;;
2022/08/01 02:37:00;;;;;;;0.3;0.3;;;;;;;20.5;100.0;101380;;;;
2022/08/01 02:38:01;;;;;;;0.3;0.3;;;;;;;20.4;100.0;101370;;;;
2022/08/01 02:39:01;;;;;;;0.3;0.3;;;;;;;20.4;100.0;101370;;;;
2022/08/01 02:40:00;;;;;;;0.3;0.3;;;;;;;20.4;100.0;101380;;;;
2022/08/01 02:41:03;;;;;;;0.3;0.3;;;;;;;20.4;100.0;101380;;;;
2022/08/01 02:42:00;;;;;;;0.3;0.3;;;;;;;20.3;100.0;101380;;;;
2022/08/01 02:43:02;;;;;;;0.3;0.3;;;;;;;20.3;100.0;101380;;;;
2022/08/01 02:44:03;;;;;;;0.3;0.3;;;;;;;20.4;100.0;101380;;;;
2022/08/01 02:45:02;;;;;;;0.3;0.3;;;;;;;20.4;100.0;101380;;;;
2022/08/01 02:46:01;;;;;;;0.3;0.3;;;;;;;20.3;100.0;101380;;;;
2022/08/01 02:47:02;;;;;;;0.3;0.3;;;;;;;20.3;100.0;101380;;;;
2022/08/01 02:48:05;;;;;;;0.3;0.3;;;;;;;20.3;100.0;101380;;;;
2022/08/01 02:49:02;;;;;;;0.3;0.3;;;;;;;20.3;100.0;101380;;;;
2022/08/01 02:50:00;;;;;;;0.3;0.3;;;;;;;20.4;100.0;101380;;;;
2022/08/01 02:51:01;;;;;;;0.3;0.3;;;;;;;20.4;100.0;101380;;;;
2022/08/01 02:52:04;;;;;;;0.3;0.3;;;;;;;20.4;100.0;101380;;;;
2022/08/01 02:53:01;;;;;;;0.3;0.3;;;;;;;20.4;100.0;101380;;;;
2022/08/01 02:54:01;;;;;;;0.3;0.3;;;;;;;20.4;100.0;101380;;;;
2022/08/01 02:55:01;;;;;;;0.3;0.3;;;;;;;20.4;100.0;101380;;;;
2022/08/01 02:56:01;;;;;;;0.3;0.3;;;;;;;20.4;100.0;101380;;;;
2022/08/01 02:57:02;;;;;;;1.0;0.6;;;;;;;20.4;100.0;101380;;;;
2022/08/01 02:58:01;;;;;;;1.0;0.6;;;;;;;20.4;100.0;101380;;;;
2022/08/01 02:59:03;;;;;;;1.0;0.6;;;;;;;20.4;100.0;101380;;;;
2022/08/01 03:00:01;;;;;;;1.0;0.6;;;;;;;20.4;100.0;101380;;;;
2022/08/01 03:01:03;;;;;;;1.0;0.6;;;;;;;20.4;100.0;101380;;;;
2022/08/01 03:02:04;;;;;;;1.0;0.6;;;;;;;20.3;100.0;101380;;;;
2022/08/01 03:03:01;;;;;;;1.0;0.6;;;;;;;20.3;100.0;101380;;;;
2022/08/01 03:04:00;;;;;;;1.0;0.6;;;;;;;20.2;100.0;101380;;;;
2022/08/01 03:05:00;;;;;;;1.0;0.6;;;;;;;20.2;100.0;101380;;;;
2022/08/01 03:06:01;;;;;;;1.0;0.6;;;;;;;20.3;100.0;101370;;;;
2022/08/01 03:07:00;;;;;;;1.0;0.6;;;;;;;20.3;100.0;101370;;;;
2022/08/01 03:08:03;;;;;;;1.0;0.6;;;;;;;20.2;100.0;101370;;;;
2022/08/01 03:09:01;;;;;;;1.0;0.6;;;;;;;20.2;100.0;101370;;;;
2022/08/01 03:10:01;;;;;;;1.0;0.6;;;;;;;20.2;100.0;101370;;;;
2022/08/01 03:11:01;;;;;;;1.0;0.6;;;;;;;20.2;100.0;101370;;;;
2022/08/01 03:12:02;;;;;;;1.0;0.6;;;;;;;20.2;100.0;101370;;;;
2022/08/01 03:13:01;;;;;;;1.0;0.6;;;;;;;20.2;100.0;101370;;;;
2022/08/01 03:14:02;;;;;;;1.0;0.6;;;;;;;20.3;100.0;101380;;;;
2022/08/01 03:15:02;;;;;;;1.0;0.6;;;;;;;20.3;100.0;101380;;;;
2022/08/01 03:16:02;;;;;;;1.0;0.6;;;;;;;20.3;100.0;101380;;;;
2022/08/01 03:17:00;;;;;;;0.5;0.5;;;;;;;20.3;100.0;101380;;;;
2022/08/01 03:18:02;;;;;;;0.5;0.5;;;;;;;20.2;100.0;101380;;;;
2022/08/01 03:19:01;;;;;;;0.5;0.5;;;;;;;20.2;100.0;101380;;;;
2022/08/01 03:20:02;;;;;;;0.5;0.5;;;;;;;20.1;100.0;101380;;;;
2022/08/01 03:21:02;;;;;;;0.5;0.5;;;;;;;20.1;100.0;101380;;;;
2022/08/01 03:22:03;;;;;;;0.5;0.5;;;;;;;20.1;100.0;101380;;;;
2022/08/01 03:23:03;;;;;;;0.5;0.5;;;;;;;20.1;100.0;101380;;;;
2022/08/01 03:24:01;;;;;;;0.5;0.5;;;;;;;20.1;100.0;101380;;;;
2022/08/01 03:25:00;;;;;;;0.5;0.5;;;;;;;20.1;100.0;101380;;;;
2022/08/01 03:26:01;;;;;;;0.5;0.5;;;;;;;20.1;100.0;101380;;;;
2022/08/01 03:27:00;;;;;;;0.5;0.5;;;;;;;20.1;100.0;101380;;;;
2022/08/01 03:28:02;;;;;;;0.5;0.5;;;;;;;20.0;100.0;101390;;;;
2022/08/01 03:29:06;;;;;;;0.5;0.5;;;;;;;20.0;100.0;101390;;;;
2022/08/01 03:30:02;;;;;;;0.5;0.5;;;;;;;20.0;100.0;101390;;;;
2022/08/01 03:31:01;;;;;;;0.5;0.5;;;;;;;20.0;100.0;101390;;;;
2022/08/01 03:32:01;;;;;;;0.5;0.5;;;;;;;19.9;100.0;101380;;;;
2022/08/01 03:33:00;;;;;;;0.5;0.5;;;;;;;19.9;100.0;101380;;;;
2022/08/01 03:34:05;;;;;;;0.5;0.5;;;;;;;19.9;100.0;101390;;;;
2022/08/01 03:35:00;;;;;;;0.5;0.5;;;;;;;19.9;100.0;101390;;;;
2022/08/01 03:36:02;;;;;;;0.5;0.5;;;;;;;19.9;100.0;101380;;;;
2022/08/01 03:37:10;;;;;;;0.1;0.1;;;;;;;19.9;100.0;101380;;;;
2022/08/01 03:38:10;;;;;;;0.1;0.1;;;;;;;20.0;100.0;101390;;;;
2022/08/01 03:39:02;;;;;;;0.1;0.1;;;;;;;20.0;100.0;101390;;;;
2022/08/01 03:40:10;;;;;;;0.1;0.1;;;;;;;19.9;100.0;101390;;;;
2022/08/01 03:41:05;;;;;;;0.1;0.1;;;;;;;19.9;100.0;101390;;;;
2022/08/01 03:42:06;;;;;;;0.1;0.1;;;;;;;19.9;100.0;101400;;;;
2022/08/01 03:43:02;;;;;;;0.1;0.1;;;;;;;19.9;100.0;101400;;;;
2022/08/01 03:44:03;;;;;;;0.1;0.1;;;;;;;19.8;100.0;101400;;;;
2022/08/01 03:45:03;;;;;;;0.1;0.1;;;;;;;19.8;100.0;101400;;;;
2022/08/01 03:46:04;;;;;;;0.1;0.1;;;;;;;19.9;100.0;101400;;;;
2022/08/01 03:47:02;;;;;;;0.1;0.1;;;;;;;19.9;100.0;101400;;;;
2022/08/01 03:48:01;;;;;;;0.1;0.1;;;;;;;19.7;100.0;101400;;;;
2022/08/01 03:49:03;;;;;;;0.1;0.1;;;;;;;19.7;100.0;101400;;;;
2022/08/01 03:50:01;;;;;;;0.1;0.1;;;;;;;19.7;100.0;101400;;;;
2022/08/01 03:51:00;;;;;;;0.1;0.1;;;;;;;19.7;100.0;101400;;;;
2022/08/01 03:52:02;;;;;;;0.1;0.1;;;;;;;19.8;100.0;101400;;;;
2022/08/01 03:53:01;;;;;;;0.1;0.1;;;;;;;19.8;100.0;101400;;;;
2022/08/01 03:54:01;;;;;;;0.1;0.1;;;;;;;19.8;100.0;101400;;;;
2022/08/01 03:55:03;;;;;;;0.1;0.1;;;;;;;19.8;100.0;101400;;;;
2022/08/01 03:56:01;;;;;;;0.1;0.1;;;;;;;19.7;100.0;101400;;;;
2022/08/01 03:57:01;;;;;;;0.3;0.3;;;;;;;19.7;100.0;101400;;;;
2022/08/01 03:58:00;;;;;;;0.3;0.3;;;;;;;19.8;100.0;101410;;;;
2022/08/01 03:59:00;;;;;;;0.3;0.3;;;;;;;19.8;100.0;101410;;;;
2022/08/01 04:00:00;;;;;;;0.3;0.3;;;;;;;19.8;100.0;101400;;;;
2022/08/01 04:01:00;;;;;;;0.3;0.3;;;;;;;19.8;100.0;101400;;;;
2022/08/01 04:02:00;;;;;;;0.3;0.3;;;;;;;19.9;100.0;101410;;;;
2022/08/01 04:03:00;;;;;;;0.3;0.3;;;;;;;19.9;100.0;101410;;;;
2022/08/01 04:04:01;;;;;;;0.3;0.3;;;;;;;19.9;100.0;101410;;;;
2022/08/01 04:05:00;;;;;;;0.3;0.3;;;;;;;19.9;100.0;101410;;;;
2022/08/01 04:06:03;;;;;;;0.3;0.3;;;;;;;19.8;100.0;101410;;;;
2022/08/01 04:07:06;;;;;;;0.3;0.3;;;;;;;19.8;100.0;101410;;;;
2022/08/01 04:08:01;;;;;;;0.3;0.3;;;;;;;19.9;100.0;101400;;;;
2022/08/01 04:09:00;;;;;;;0.3;0.3;;;;;;;19.9;100.0;101400;;;;
2022/08/01 04:10:00;;;;;;;0.3;0.3;;;;;;;19.9;100.0;101400;;;;
2022/08/01 04:11:00;;;;;;;0.3;0.3;;;;;;;19.9;100.0;101400;;;;
2022/08/01 04:12:00;;;;;;;0.3;0.3;;;;;;;20.0;100.0;101400;;;;
2022/08/01 04:13:00;;;;;;;0.3;0.3;;;;;;;20.0;100.0;101400;;;;
2022/08/01 04:14:00;;;;;;;0.3;0.3;;;;;;;20.0;100.0;101400;;;;
2022/08/01 04:15:00;;;;;;;0.3;0.3;;;;;;;20.0;100.0;101400;;;;
2022/08/01 04:16:00;;;;;;;0.3;0.3;;;;;;;19.9;100.0;101400;;;;
2022/08/01 04:17:00;;;;;;;0.2;0.2;;;;;;;19.9;100.0;101400;;;;
2022/08/01 04:18:00;;;;;;;0.2;0.2;;;;;;;20.0;100.0;101400;;;;
2022/08/01 04:19:00;;;;;;;0.2;0.2;;;;;;;20.0;100.0;101400;;;;
2022/08/01 04:20:00;;;;;;;0.2;0.2;;;;;;;20.0;100.0;101400;;;;
2022/08/01 04:21:00;;;;;;;0.2;0.2;;;;;;;20.0;100.0;101400;;;;
2022/08/01 04:22:00;;;;;;;0.2;0.2;;;;;;;20.0;100.0;101400;;;;
2022/08/01 04:23:00;;;;;;;0.2;0.2;;;;;;;20.0;100.0;101400;;;;
2022/08/01 04:24:04;;;;;;;0.2;0.2;;;;;;;20.0;100.0;101410;;;;
2022/08/01 04:25:02;;;;;;;0.2;0.2;;;;;;;20.0;100.0;101410;;;;
2022/08/01 04:26:03;;;;;;;0.2;0.2;;;;;;;19.9;100.0;101410;;;;
2022/08/01 04:27:01;;;;;;;0.2;0.2;;;;;;;19.9;100.0;101410;;;;
2022/08/01 04:28:03;;;;;;;0.2;0.2;;;;;;;19.9;100.0;101400;;;;
2022/08/01 04:29:02;;;;;;;0.2;0.2;;;;;;;19.9;100.0;101400;;;;
2022/08/01 04:30:00;;;;;;;0.2;0.2;;;;;;;19.9;100.0;101410;;;;
2022/08/01 04:31:02;;;;;;;0.2;0.2;;;;;;;19.9;100.0;101410;;;;
2022/08/01 04:32:01;;;;;;;0.2;0.2;;;;;;;19.9;100.0;101410;;;;
2022/08/01 04:33:01;;;;;;;0.2;0.2;;;;;;;19.9;100.0;101410;;;;
2022/08/01 04:34:01;;;;;;;0.2;0.2;;;;;;;19.8;100.0;101410;;;;
2022/08/01 04:35:12;;;;;;;0.2;0.2;;;;;;;19.8;100.0;101410;;;;
2022/08/01 04:36:05;;;;;;;0.2;0.2;;;;;;;19.9;100.0;101410;;;;
2022/08/01 04:37:01;;;;;;;0.4;0.4;;;;;;;19.9;100.0;101410;;;;
2022/08/01 04:38:01;;;;;;;0.4;0.4;;;;;;;20.1;100.0;101410;;;;
2022/08/01 04:39:01;;;;;;;0.4;0.4;;;;;;;20.1;100.0;101410;;;;
2022/08/01 04:40:00;;;;;;;0.4;0.4;;;;;;;19.9;100.0;101410;;;;
2022/08/01 04:41:09;;;;;;;0.4;0.4;;;;;;;19.9;100.0;101410;;;;
2022/08/01 04:42:03;;;;;;;0.4;0.4;;;;;;;19.9;100.0;101410;;;;
2022/08/01 04:43:00;;;;;;;0.4;0.4;;;;;;;19.9;100.0;101410;;;;
2022/08/01 04:44:00;;;;;;;0.4;0.4;;;;;;;19.9;100.0;101410;;;;
2022/08/01 04:45:00;;;;;;;0.4;0.4;;;;;;;19.9;100.0;101410;;;;
2022/08/01 04:46:03;;;;;;;0.4;0.4;;;;;;;19.9;100.0;101420;;;;
2022/08/01 04:47:02;;;;;;;0.4;0.4;;;;;;;19.9;100.0;101420;;;;
2022/08/01 04:48:00;;;;;;;0.4;0.4;;;;;;;19.8;100.0;101420;;;;
2022/08/01 04:49:00;;;;;;;0.4;0.4;;;;;;;19.8;100.0;101420;;;;
2022/08/01 04:50:00;;;;;;;0.4;0.4;;;;;;;19.8;100.0;101420;;;;
2022/08/01 04:51:00;;;;;;;0.4;0.4;;;;;;;19.8;100.0;101420;;;;
2022/08/01 04:52:00;;;;;;;0.4;0.4;;;;;;;19.9;100.0;101420;;;;
2022/08/01 04:53:02;;;;;;;0.4;0.4;;;;;;;19.9;100.0;101420;;;;
2022/08/01 04:54:00;;;;;;;0.4;0.4;;;;;;;19.9;100.0;101420;;;;
2022/08/01 04:55:00;;;;;;;0.4;0.4;;;;;;;19.9;100.0;101420;;;;
2022/08/01 04:56:00;;;;;;;0.4;0.4;;;;;;;19.9;100.0;101420;;;;
2022/08/01 04:57:00;;;;;;;0.3;0.3;;;;;;;19.9;100.0;101420;;;;
2022/08/01 04:58:00;;;;;;;0.3;0.3;;;;;;;19.9;100.0;101420;;;;
2022/08/01 05:00:02;;;;;;;0.3;0.3;;;;;;;19.9;100.0;101420;;;;
2022/08/01 05:01:00;;;;;;;0.3;0.3;;;;;;;19.9;100.0;101420;;;;
2022/08/01 05:02:00;;;;;;;0.3;0.3;;;;;;;19.8;100.0;101420;;;;
2022/08/01 05:03:00;;;;;;;0.3;0.3;;;;;;;19.8;100.0;101420;;;;
2022/08/01 05:04:01;;;;;;;0.3;0.3;;;;;;;19.9;100.0;101420;;;;
2022/08/01 05:05:00;;;;;;;0.3;0.3;;;;;;;19.9;100.0;101420;;;;
2022/08/01 05:06:00;;;;;;;0.3;0.3;;;;;;;19.9;100.0;101420;;;;
2022/08/01 05:07:00;;;;;;;0.3;0.3;;;;;;;19.9;100.0;101420;;;;
2022/08/01 05:08:00;;;;;;;0.3;0.3;;;;;;;20.0;100.0;101420;;;;
2022/08/01 05:09:00;;;;;;;0.3;0.3;;;;;;;20.0;100.0;101420;;;;
2022/08/01 05:10:01;;;;;;;0.3;0.3;;;;;;;20.0;100.0;101430;;;;
2022/08/01 05:11:01;;;;;;;0.3;0.3;;;;;;;20.0;100.0;101430;;;;
2022/08/01 05:12:01;;;;;;;0.3;0.3;;;;;;;20.0;100.0;101430;;;;
2022/08/01 05:13:00;;;;;;;0.3;0.3;;;;;;;20.0;100.0;101430;;;;
2022/08/01 05:14:00;;;;;;;0.3;0.3;;;;;;;20.0;100.0;101430;;;;
2022/08/01 05:15:00;;;;;;;0.3;0.3;;;;;;;20.0;100.0;101430;;;;
2022/08/01 05:16:03;;;;;;;0.3;0.3;;;;;;;20.1;100.0;101440;;;;
2022/08/01 05:17:02;;;;;;;0.2;0.2;;;;;;;20.1;100.0;101440;;;;
2022/08/01 05:18:00;;;;;;;0.2;0.2;;;;;;;20.2;100.0;101440;;;;
2022/08/01 05:19:00;;;;;;;0.2;0.2;;;;;;;20.2;100.0;101440;;;;
2022/08/01 05:20:00;;;;;;;0.2;0.2;;;;;;;20.1;100.0;101440;;;;
2022/08/01 05:21:00;;;;;;;0.2;0.2;;;;;;;20.1;100.0;101440;;;;
2022/08/01 05:22:01;;;;;;;0.2;0.2;;;;;;;20.1;100.0;101440;;;;
2022/08/01 05:23:00;;;;;;;0.2;0.2;;;;;;;20.1;100.0;101440;;;;
2022/08/01 05:24:00;;;;;;;0.2;0.2;;;;;;;20.1;100.0;101430;;;;
2022/08/01 05:25:00;;;;;;;0.2;0.2;;;;;;;20.1;100.0;101430;;;;
2022/08/01 05:26:04;;;;;;;0.2;0.2;;;;;;;20.2;100.0;101430;;;;
2022/08/01 05:27:00;;;;;;;0.2;0.2;;;;;;;20.2;100.0;101430;;;;
2022/08/01 05:28:00;;;;;;;0.2;0.2;;;;;;;20.4;100.0;101430;;;;
2022/08/01 05:29:00;;;;;;;0.2;0.2;;;;;;;20.4;100.0;101430;;;;
2022/08/01 05:30:00;;;;;;;0.2;0.2;;;;;;;20.5;100.0;101430;;;;
2022/08/01 05:31:00;;;;;;;0.2;0.2;;;;;;;20.5;100.0;101430;;;;
2022/08/01 05:37:00;;;;;;;0.2;0.2;;;;;;;20.5;100.0;101440;;;;
2022/08/01 05:38:00;;;;;;;0.2;0.2;;;;;;;20.6;100.0;101450;;;;
2022/08/01 05:39:00;;;;;;;0.2;0.2;;;;;;;20.6;100.0;101450;;;;
2022/08/01 05:40:00;;;;;;;0.2;0.2;;;;;;;20.7;100.0;101450;;;;
2022/08/01 05:41:00;;;;;;;0.2;0.2;;;;;;;20.7;100.0;101450;;;;
2022/08/01 05:42:00;;;;;;;0.2;0.2;;;;;;;20.7;100.0;101450;;;;
2022/08/01 05:43:00;;;;;;;0.2;0.2;;;;;;;20.7;100.0;101450;;;;
2022/08/01 05:44:00;;;;;;;0.2;0.2;;;;;;;20.7;100.0;101450;;;;
2022/08/01 05:45:00;;;;;;;0.2;0.2;;;;;;;20.7;100.0;101450;;;;
2022/08/01 05:46:01;;;;;;;0.2;0.2;;;;;;;20.6;100.0;101450;;;;
2022/08/01 05:47:00;;;;;;;0.2;0.2;;;;;;;20.6;100.0;101450;;;;
2022/08/01 05:48:00;;;;;;;0.2;0.2;;;;;;;20.7;100.0;101460;;;;
2022/08/01 05:49:00;;;;;;;0.2;0.2;;;;;;;20.7;100.0;101460;;;;
2022/08/01 05:50:00;;;;;;;0.2;0.2;;;;;;;20.8;100.0;101460;;;;
2022/08/01 05:51:00;;;;;;;0.2;0.2;;;;;;;20.8;100.0;101460;;;;
2022/08/01 05:52:01;;;;;;;0.2;0.2;;;;;;;20.8;100.0;101460;;;;
2022/08/01 05:53:00;;;;;;;0.2;0.2;;;;;;;20.8;100.0;101460;;;;
2022/08/01 05:54:00;;;;;;;0.2;0.2;;;;;;;20.9;100.0;101460;;;;
2022/08/01 05:55:00;;;;;;;0.2;0.2;;;;;;;20.9;100.0;101460;;;;
2022/08/01 05:56:01;;;;;;;0.2;0.2;;;;;;;21.0;100.0;101450;;;;
2022/08/01 05:57:01;;;;;;;0.6;0.6;;;;;;;21.0;100.0;101450;;;;
2022/08/01 05:58:00;;;;;;;0.6;0.6;;;;;;;21.1;100.0;101450;;;;
2022/08/01 05:59:00;;;;;;;0.6;0.6;;;;;;;21.1;100.0;101450;;;;
2022/08/01 06:00:00;;;;;;;0.6;0.6;;;;;;;21.1;100.0;101450;;;;
2022/08/01 06:01:00;;;;;;;0.6;0.6;;;;;;;21.1;100.0;101450;;;;
2022/08/01 06:02:00;;;;;;;0.6;0.6;;;;;;;21.1;100.0;101450;;;;
2022/08/01 06:03:00;;;;;;;0.6;0.6;;;;;;;21.1;100.0;101450;;;;
2022/08/01 06:04:00;;;;;;;0.6;0.6;;;;;;;21.1;100.0;101450;;;;
2022/08/01 06:05:00;;;;;;;0.6;0.6;;;;;;;21.1;100.0;101450;;;;
2022/08/01 06:06:00;;;;;;;0.6;0.6;;;;;;;21.1;100.0;101450;;;;
2022/08/01 06:07:00;;;;;;;0.6;0.6;;;;;;;21.1;100.0;101450;;;;
2022/08/01 06:08:00;;;;;;;0.6;0.6;;;;;;;21.2;100.0;101450;;;;
2022/08/01 06:09:00;;;;;;;0.6;0.6;;;;;;;21.2;100.0;101450;;;;
2022/08/01 06:10:00;;;;;;;0.6;0.6;;;;;;;21.2;100.0;101450;;;;
2022/08/01 06:11:00;;;;;;;0.6;0.6;;;;;;;21.2;100.0;101450;;;;
2022/08/01 06:12:00;;;;;;;0.6;0.6;;;;;;;21.1;100.0;101450;;;;
2022/08/01 06:13:02;;;;;;;0.6;0.6;;;;;;;21.1;100.0;101450;;;;
2022/08/01 06:14:00;;;;;;;0.6;0.6;;;;;;;21.1;100.0;101460;;;;
2022/08/01 06:15:00;;;;;;;0.6;0.6;;;;;;;21.1;100.0;101460;;;;
2022/08/01 06:16:00;;;;;;;0.6;0.6;;;;;;;21.2;100.0;101450;;;;
2022/08/01 06:17:00;;;;;;;0.2;0.2;;;;;;;21.2;100.0;101450;;;;
2022/08/01 06:18:00;;;;;;;0.2;0.2;;;;;;;21.2;100.0;101450;;;;
2022/08/01 06:19:00;;;;;;;0.2;0.2;;;;;;;21.2;100.0;101450;;;;
2022/08/01 06:20:00;;;;;;;0.2;0.2;;;;;;;21.3;100.0;101450;;;;
2022/08/01 06:21:00;;;;;;;0.2;0.2;;;;;;;21.3;100.0;101450;;;;
2022/08/01 06:22:00;;;;;;;0.2;0.2;;;;;;;21.2;100.0;101460;;;;
2022/08/01 06:23:02;;;;;;;0.2;0.2;;;;;;;21.2;100.0;101460;;;;
2022/08/01 06:24:00;;;;;;;0.2;0.2;;;;;;;21.2;100.0;101450;;;;
2022/08/01 06:25:00;;;;;;;0.2;0.2;;;;;;;21.2;100.0;101450;;;;
2022/08/01 06:26:00;;;;;;;0.2;0.2;;;;;;;21.3;100.0;101460;;;;
2022/08/01 06:27:00;;;;;;;0.2;0.2;;;;;;;21.3;100.0;101460;;;;
2022/08/01 06:28:00;;;;;;;0.2;0.2;;;;;;;21.4;100.0;101460;;;;
2022/08/01 06:29:00;;;;;;;0.2;0.2;;;;;;;21.4;100.0;101460;;;;